Time;durP1;ratioP1;P1;durP2;ratioP2;P2;SDS_P1;SDS_P2;PMS_P1;PMS_P2;Temp;Humidity;BMP_temperature;BMP_pressure;BME280_temperature;BME280_humidity;BME280_pressure;Samples;Min_cycle;Max_cycle;Signal;HPM_P1;HPM_P2
2024/01/28 00:02:14;;;;;;;;;;;3.80;84.10;;;;;;4173003;28;20813;-83
2024/01/28 00:04:34;;;;;;;;;;;3.70;84.10;;;;;;4176416;28;19947;-83
2024/01/28 00:06:55;;;;;;;;;;;3.70;84.10;;;;;;4166086;28;19962;-83
2024/01/28 00:09:15;;;;;;;;;;;3.70;84.10;;;;;;4164261;28;19948;-83
2024/01/28 00:11:36;;;;;;;;;;;3.70;84.10;;;;;;4165770;28;19978;-82
2024/01/28 00:13:57;;;;;;;;;;;3.70;84.20;;;;;;4161116;28;20174;-83
2024/01/28 00:16:20;;;;;;;;;;;3.70;84.10;;;;;;4159810;28;19944;-84
2024/01/28 00:18:21;;;;;;;;;;;3.80;84.20;;;;;;4148257;28;19921;-84
2024/01/28 00:20:21;;;;;;;;;;;3.70;84.20;;;;;;4159720;28;19964;-83
2024/01/28 00:22:22;;;;;;;;;;;3.70;84.20;;;;;;4162214;28;19991;-83
2024/01/28 00:24:23;;;;;;;;;;;3.70;84.30;;;;;;4160838;28;19928;-83
2024/01/28 00:26:44;;;;;;;;;;;3.70;84.30;;;;;;4159291;28;19913;-83
2024/01/28 00:28:44;;;;;;;;;;;3.70;84.30;;;;;;4160744;28;19929;-84
2024/01/28 00:31:07;;;;;;;;;;;3.70;84.30;;;;;;4159765;28;19921;-83
2024/01/28 00:33:28;;;;;;;;;;;3.70;84.30;;;;;;4162044;28;19972;-83
2024/01/28 00:35:48;;;;;;;;;;;3.70;84.40;;;;;;4162952;28;19917;-83
2024/01/28 00:38:09;;;;;;;;;;;3.70;84.30;;;;;;4164575;28;19943;-84
2024/01/28 00:40:10;;;;;;;;;;;3.80;84.40;;;;;;4142150;28;19961;-83
2024/01/28 00:42:11;;;;;;;;;;;3.70;84.40;;;;;;4159042;28;19928;-83
2024/01/28 00:44:31;;;;;;;;;;;3.80;84.50;;;;;;4160871;28;19928;-84
2024/01/28 00:46:54;;;;;;;;;;;3.70;84.40;;;;;;4159815;28;19921;-84
2024/01/28 00:49:14;;;;;;;;;;;3.70;84.40;;;;;;4160257;28;20004;-84
2024/01/28 00:51:35;;;;;;;;;;;3.70;84.40;;;;;;4160550;28;19939;-84
2024/01/28 00:53:56;;;;;;;;;;;3.70;84.50;;;;;;4160576;28;19917;-83
2024/01/28 00:56:17;;;;;;;;;;;3.70;84.50;;;;;;4159319;28;19925;-84
2024/01/28 00:58:38;;;;;;;;;;;3.80;84.60;;;;;;4159485;28;19921;-84
2024/01/28 01:00:58;;;;;;;;;;;3.70;84.60;;;;;;4157428;28;21213;-84
2024/01/28 01:03:19;;;;;;;;;;;3.70;84.60;;;;;;4159891;28;19964;-84
2024/01/28 01:05:41;;;;;;;;;;;3.70;84.60;;;;;;4159876;28;19921;-84
2024/01/28 01:08:02;;;;;;;;;;;3.70;84.60;;;;;;4158847;28;20073;-84
2024/01/28 01:10:04;;;;;;;;;;;3.70;84.50;;;;;;4164544;28;19920;-84
2024/01/28 01:12:06;;;;;;;;;;;3.70;84.50;;;;;;4158315;28;20002;-84
2024/01/28 01:14:07;;;;;;;;;;;3.70;84.40;;;;;;4147679;28;22196;-84
2024/01/28 01:16:07;;;;;;;;;;;3.70;84.50;;;;;;4153597;28;19921;-83
2024/01/28 01:18:08;;;;;;;;;;;3.70;84.40;;;;;;4160627;28;19913;-83
2024/01/28 01:20:08;;;;;;;;;;;3.70;84.40;;;;;;4161064;28;19931;-83
2024/01/28 01:22:09;;;;;;;;;;;3.60;84.30;;;;;;4161344;28;19986;-83
2024/01/28 01:24:11;;;;;;;;;;;3.60;84.30;;;;;;4157284;28;20402;-82
2024/01/28 01:26:13;;;;;;;;;;;3.60;84.30;;;;;;4155897;28;19917;-82
2024/01/28 01:28:31;;;;;;;;;;;3.60;84.20;;;;;;4160424;28;19913;-83
2024/01/28 01:30:51;;;;;;;;;;;3.60;84.20;;;;;;4158579;28;19928;-82
2024/01/28 01:33:12;;;;;;;;;;;3.60;84.20;;;;;;4159333;28;20503;-83
2024/01/28 01:35:32;;;;;;;;;;;3.50;84.20;;;;;;4159008;28;19987;-82
2024/01/28 01:37:54;;;;;;;;;;;3.50;84.20;;;;;;4157442;28;19920;-83
2024/01/28 01:40:15;;;;;;;;;;;3.50;84.20;;;;;;4159333;28;20044;-83
2024/01/28 01:42:35;;;;;;;;;;;3.50;84.10;;;;;;4159298;28;19920;-84
2024/01/28 01:44:56;;;;;;;;;;;3.50;84.10;;;;;;4160044;28;19943;-85
2024/01/28 01:47:17;;;;;;;;;;;3.40;84.10;;;;;;4159413;28;19917;-86
2024/01/28 01:49:36;;;;;;;;;;;3.40;84.10;;;;;;4159237;28;20582;-85
2024/01/28 01:51:37;;;;;;;;;;;3.40;84.10;;;;;;4157335;28;19928;-84
2024/01/28 01:53:38;;;;;;;;;;;3.50;84.10;;;;;;4154334;28;19927;-85
2024/01/28 01:55:40;;;;;;;;;;;3.40;84.10;;;;;;4158591;28;20403;-86
2024/01/28 01:58:01;;;;;;;;;;;3.40;84.10;;;;;;4157740;28;20349;-85
2024/01/28 02:00:22;;;;;;;;;;;3.40;84.10;;;;;;4159272;28;19929;-84
2024/01/28 02:02:44;;;;;;;;;;;3.30;84.10;;;;;;4164922;28;19913;-85
2024/01/28 02:05:05;;;;;;;;;;;3.30;84.10;;;;;;4161052;28;19994;-85
2024/01/28 02:07:26;;;;;;;;;;;3.30;84.20;;;;;;4158265;28;19955;-85
2024/01/28 02:09:46;;;;;;;;;;;3.30;84.90;;;;;;4157049;28;20315;-85
2024/01/28 02:12:07;;;;;;;;;;;3.20;84.10;;;;;;4158186;28;19921;-85
2024/01/28 02:14:29;;;;;;;;;;;3.20;84.10;;;;;;4157564;28;19940;-85
2024/01/28 02:16:49;;;;;;;;;;;3.20;84.10;;;;;;4158838;28;19934;-84
2024/01/28 02:19:10;;;;;;;;;;;3.20;84.10;;;;;;4156673;28;19925;-86
2024/01/28 02:21:30;;;;;;;;;;;3.20;84.10;;;;;;4154893;28;20383;-84
2024/01/28 02:23:31;;;;;;;;;;;3.20;84.20;;;;;;4156166;28;19927;-85
2024/01/28 02:25:33;;;;;;;;;;;3.20;84.20;;;;;;4158070;28;19928;-85
2024/01/28 02:27:34;;;;;;;;;;;3.10;84.10;;;;;;4160368;28;19928;-85
2024/01/28 02:29:35;;;;;;;;;;;3.10;84.10;;;;;;4160900;28;20541;-85
2024/01/28 02:31:35;;;;;;;;;;;3.10;84.20;;;;;;4161321;28;19951;-85
2024/01/28 02:33:36;;;;;;;;;;;3.10;84.10;;;;;;4159377;28;19976;-86
2024/01/28 02:35:37;;;;;;;;;;;3.10;84.10;;;;;;4159769;28;19927;-85
2024/01/28 02:37:37;;;;;;;;;;;3.00;84.10;;;;;;4160639;28;19913;-84
2024/01/28 02:39:38;;;;;;;;;;;3.10;84.20;;;;;;4164660;28;19928;-85
2024/01/28 02:41:39;;;;;;;;;;;3.00;84.20;;;;;;4161851;28;19923;-85
2024/01/28 02:43:44;;;;;;;;;;;3.10;84.30;;;;;;4143357;28;19929;-85
2024/01/28 02:45:45;;;;;;;;;;;3.00;84.30;;;;;;4160907;28;20318;-84
2024/01/28 02:47:45;;;;;;;;;;;3.00;84.40;;;;;;4161775;28;19920;-84
2024/01/28 02:49:46;;;;;;;;;;;3.00;84.40;;;;;;4161370;28;19916;-84
2024/01/28 02:51:47;;;;;;;;;;;3.00;84.40;;;;;;4163602;28;20556;-85
2024/01/28 02:53:47;;;;;;;;;;;3.00;84.40;;;;;;4160937;28;19953;-84
2024/01/28 02:55:55;;;;;;;;;;;3.00;84.40;;;;;;4161367;28;19936;-83
2024/01/28 02:57:56;;;;;;;;;;;3.10;84.50;;;;;;4160573;28;19932;-83
2024/01/28 02:59:57;;;;;;;;;;;3.10;85.30;;;;;;4162307;28;19921;-84
2024/01/28 03:01:58;;;;;;;;;;;3.10;84.60;;;;;;4159601;28;20360;-84
2024/01/28 03:03:59;;;;;;;;;;;3.10;84.50;;;;;;4143439;28;19921;-85
2024/01/28 03:05:59;;;;;;;;;;;3.10;84.50;;;;;;4161337;28;19917;-84
2024/01/28 03:08:01;;;;;;;;;;;3.10;84.60;;;;;;4159987;28;19952;-84
2024/01/28 03:10:21;;;;;;;;;;;3.10;84.50;;;;;;4158246;28;20390;-83
2024/01/28 03:12:42;;;;;;;;;;;3.10;84.50;;;;;;4160686;28;20514;-83
2024/01/28 03:15:03;;;;;;;;;;;3.00;84.50;;;;;;4160991;28;19936;-82
2024/01/28 03:17:23;;;;;;;;;;;3.00;84.30;;;;;;4162434;28;19927;-83
2024/01/28 03:19:44;;;;;;;;;;;3.00;84.30;;;;;;4165676;28;19924;-83
2024/01/28 03:22:04;;;;;;;;;;;3.00;84.30;;;;;;4165028;28;19921;-85
2024/01/28 03:24:25;;;;;;;;;;;3.00;84.20;;;;;;4162719;28;19954;-84
2024/01/28 03:26:45;;;;;;;;;;;3.00;84.20;;;;;;4161268;28;19924;-84
2024/01/28 03:29:06;;;;;;;;;;;2.90;84.10;;;;;;4163518;28;20504;-84
2024/01/28 03:31:26;;;;;;;;;;;2.90;84.20;;;;;;4162721;28;21001;-84
2024/01/28 03:33:29;;;;;;;;;;;2.90;84.10;;;;;;4164314;28;20293;-84
2024/01/28 03:35:29;;;;;;;;;;;2.90;84.10;;;;;;4160705;28;20062;-84
2024/01/28 03:37:30;;;;;;;;;;;2.90;84.10;;;;;;4162461;28;19938;-85
2024/01/28 03:39:30;;;;;;;;;;;2.90;84.80;;;;;;4146069;28;19988;-83
2024/01/28 03:41:31;;;;;;;;;;;2.80;84.10;;;;;;4159584;28;20490;-84
2024/01/28 03:43:32;;;;;;;;;;;2.80;84.10;;;;;;4161991;28;19917;-83
2024/01/28 03:45:32;;;;;;;;;;;2.80;84.10;;;;;;4161722;28;20549;-86
2024/01/28 03:47:33;;;;;;;;;;;2.70;84.10;;;;;;4161703;28;19932;-84
2024/01/28 03:49:33;;;;;;;;;;;2.70;84.00;;;;;;4160423;28;19917;-86
2024/01/28 03:51:34;;;;;;;;;;;2.80;84.20;;;;;;4159197;28;19968;-86
2024/01/28 03:53:34;;;;;;;;;;;2.70;84.00;;;;;;4173368;28;20209;-86
2024/01/28 03:55:35;;;;;;;;;;;2.70;84.00;;;;;;4180284;28;19932;-85
2024/01/28 03:57:39;;;;;;;;;;;2.60;84.00;;;;;;4185487;28;19905;-85
2024/01/28 03:59:39;;;;;;;;;;;2.80;84.10;;;;;;4185297;28;19924;-83
2024/01/28 04:01:40;;;;;;;;;;;2.60;84.00;;;;;;4176145;28;19917;-84
2024/01/28 04:03:40;;;;;;;;;;;2.60;84.00;;;;;;4165230;28;20015;-85
2024/01/28 04:05:43;;;;;;;;;;;2.60;84.00;;;;;;4166281;28;20008;-85
2024/01/28 04:07:43;;;;;;;;;;;2.50;83.90;;;;;;4160612;28;20076;-84
2024/01/28 04:09:44;;;;;;;;;;;2.50;83.90;;;;;;4160965;28;19967;-85
2024/01/28 04:11:45;;;;;;;;;;;2.50;84.00;;;;;;4160308;28;19921;-83
2024/01/28 04:13:45;;;;;;;;;;;2.50;84.00;;;;;;4156509;28;19927;-84
2024/01/28 04:15:46;;;;;;;;;;;2.50;83.90;;;;;;4148009;28;20417;-84
2024/01/28 04:17:46;;;;;;;;;;;2.50;84.00;;;;;;4163322;28;19928;-82
2024/01/28 04:19:47;;;;;;;;;;;2.50;84.00;;;;;;4164573;28;19929;-84
2024/01/28 04:21:47;;;;;;;;;;;2.40;84.00;;;;;;4164440;28;19923;-83
2024/01/28 04:23:48;;;;;;;;;;;2.40;83.90;;;;;;4158994;28;19917;-83
2024/01/28 04:25:49;;;;;;;;;;;2.40;84.00;;;;;;4160693;28;20432;-84
2024/01/28 04:27:49;;;;;;;;;;;2.40;84.00;;;;;;4160484;28;19921;-82
2024/01/28 04:29:51;;;;;;;;;;;2.40;84.00;;;;;;4159894;28;19931;-83
2024/01/28 04:31:53;;;;;;;;;;;2.30;83.90;;;;;;4162858;28;19920;-82
2024/01/28 04:33:54;;;;;;;;;;;2.30;84.00;;;;;;4158717;28;19925;-83
2024/01/28 04:35:54;;;;;;;;;;;2.30;84.00;;;;;;4159931;28;20352;-84
2024/01/28 04:37:56;;;;;;;;;;;2.30;84.00;;;;;;4162687;28;19920;-83
2024/01/28 04:39:57;;;;;;;;;;;2.30;84.00;;;;;;4145764;28;19925;-84
2024/01/28 04:41:58;;;;;;;;;;;2.30;84.00;;;;;;4162451;28;20044;-84
2024/01/28 04:43:58;;;;;;;;;;;2.20;84.00;;;;;;4159107;28;19924;-83
2024/01/28 04:45:59;;;;;;;;;;;2.20;84.00;;;;;;4157155;28;19928;-83
2024/01/28 04:47:59;;;;;;;;;;;2.20;84.00;;;;;;4142859;28;19963;-83
2024/01/28 04:50:00;;;;;;;;;;;2.20;83.90;;;;;;4160056;28;19925;-83
2024/01/28 04:52:01;;;;;;;;;;;2.20;84.00;;;;;;4161264;28;19913;-83
2024/01/28 04:54:02;;;;;;;;;;;2.20;84.00;;;;;;4159156;28;20023;-83
2024/01/28 04:56:02;;;;;;;;;;;2.10;84.00;;;;;;4158862;28;20044;-84
2024/01/28 04:58:03;;;;;;;;;;;2.10;84.00;;;;;;4161608;28;19921;-83
2024/01/28 05:00:05;;;;;;;;;;;2.10;84.00;;;;;;4142103;28;20034;-82
2024/01/28 05:02:06;;;;;;;;;;;2.10;84.00;;;;;;4159781;28;19952;-82
2024/01/28 05:04:07;;;;;;;;;;;2.10;84.00;;;;;;4151291;28;20342;-82
2024/01/28 05:06:08;;;;;;;;;;;2.10;84.00;;;;;;4161001;28;19913;-83
2024/01/28 05:08:09;;;;;;;;;;;2.20;84.00;;;;;;4141537;28;19975;-86
2024/01/28 05:10:10;;;;;;;;;;;2.10;84.00;;;;;;4160109;28;20387;-86
2024/01/28 05:12:11;;;;;;;;;;;2.00;83.90;;;;;;4144899;28;20402;-83
2024/01/28 05:14:12;;;;;;;;;;;2.00;84.00;;;;;;4161936;28;19928;-85
2024/01/28 05:16:13;;;;;;;;;;;2.00;83.90;;;;;;4156850;28;19913;-85
2024/01/28 05:18:13;;;;;;;;;;;2.00;84.00;;;;;;4160578;28;20350;-85
2024/01/28 05:20:15;;;;;;;;;;;2.00;84.00;;;;;;4162534;28;19932;-86
2024/01/28 05:22:15;;;;;;;;;;;2.00;84.00;;;;;;4160895;28;20012;-85
2024/01/28 05:24:16;;;;;;;;;;;1.90;83.90;;;;;;4159312;28;20402;-85
2024/01/28 05:26:17;;;;;;;;;;;1.90;84.00;;;;;;4156387;28;19924;-85
2024/01/28 05:28:20;;;;;;;;;;;1.90;83.90;;;;;;4160733;28;19913;-84
2024/01/28 05:30:25;;;;;;;;;;;2.00;84.00;;;;;;4164569;28;20577;-86
2024/01/28 05:32:40;;;;;;;;;;;1.90;84.10;;;;;;4148905;28;19976;-85
2024/01/28 05:35:03;;;;;;;;;;;1.90;84.00;;;;;;4161549;28;19917;-85
2024/01/28 05:37:24;;;;;;;;;;;1.80;83.90;;;;;;4160250;28;19983;-85
2024/01/28 05:39:44;;;;;;;;;;;1.80;84.00;;;;;;4163790;28;19917;-85
2024/01/28 05:41:53;;;;;;;;;;;1.80;84.00;;;;;;4163204;28;19921;-85
2024/01/28 05:44:14;;;;;;;;;;;1.80;84.00;;;;;;4163357;28;19925;-86
2024/01/28 05:46:34;;;;;;;;;;;1.80;84.10;;;;;;4160867;28;19917;-86
2024/01/28 05:48:55;;;;;;;;;;;1.80;84.10;;;;;;4181702;28;19952;-86
2024/01/28 05:51:16;;;;;;;;;;;1.80;84.10;;;;;;4159994;28;20084;-87
2024/01/28 05:53:37;;;;;;;;;;;1.70;84.10;;;;;;4160624;28;20087;-87
2024/01/28 05:55:57;;;;;;;;;;;1.80;84.20;;;;;;4155611;28;19948;-86
2024/01/28 05:58:19;;;;;;;;;;;1.80;84.20;;;;;;4159927;28;20346;-86
2024/01/28 06:00:40;;;;;;;;;;;1.80;84.20;;;;;;4162161;28;20425;-86
2024/01/28 06:03:00;;;;;;;;;;;1.70;84.20;;;;;;4160972;28;20409;-85
2024/01/28 06:05:21;;;;;;;;;;;1.80;84.30;;;;;;4156248;28;20378;-83
2024/01/28 06:07:41;;;;;;;;;;;1.80;84.30;;;;;;4162137;28;20359;-82
2024/01/28 06:10:02;;;;;;;;;;;1.70;84.20;;;;;;4156914;28;20447;-81
2024/01/28 06:12:22;;;;;;;;;;;1.70;84.30;;;;;;4164113;28;20498;-82
2024/01/28 06:14:43;;;;;;;;;;;1.70;84.30;;;;;;4158607;28;19913;-82
2024/01/28 06:16:44;;;;;;;;;;;1.70;84.30;;;;;;4161125;28;19975;-82
2024/01/28 06:18:44;;;;;;;;;;;1.70;84.30;;;;;;4161780;28;19920;-81
2024/01/28 06:20:45;;;;;;;;;;;1.70;84.30;;;;;;4161230;28;19928;-82
2024/01/28 06:22:46;;;;;;;;;;;1.70;84.30;;;;;;4160557;28;20011;-82
2024/01/28 06:24:47;;;;;;;;;;;1.70;84.40;;;;;;4160708;28;19931;-82
2024/01/28 06:26:48;;;;;;;;;;;1.80;84.40;;;;;;4154100;28;19928;-82
2024/01/28 06:28:49;;;;;;;;;;;1.80;84.30;;;;;;4158057;28;20007;-82
2024/01/28 06:30:49;;;;;;;;;;;1.70;84.30;;;;;;4160993;28;19948;-81
2024/01/28 06:32:50;;;;;;;;;;;1.70;84.30;;;;;;4146553;28;19914;-81
2024/01/28 06:34:50;;;;;;;;;;;1.70;84.30;;;;;;4160729;28;19964;-81
2024/01/28 06:36:51;;;;;;;;;;;1.60;84.20;;;;;;4158084;28;19921;-82
2024/01/28 06:38:52;;;;;;;;;;;1.60;84.20;;;;;;4159704;28;19986;-82
2024/01/28 06:40:52;;;;;;;;;;;1.70;84.30;;;;;;4159062;28;19920;-82
2024/01/28 06:42:53;;;;;;;;;;;1.60;84.10;;;;;;4160460;28;20426;-82
2024/01/28 06:44:54;;;;;;;;;;;1.60;84.10;;;;;;4161978;28;20290;-82
2024/01/28 06:46:54;;;;;;;;;;;1.60;84.20;;;;;;4159993;28;19922;-81
2024/01/28 06:48:55;;;;;;;;;;;1.60;84.10;;;;;;4159724;28;20008;-81
2024/01/28 06:51:03;;;;;;;;;;;1.60;84.20;;;;;;4155468;28;19917;-81
2024/01/28 06:53:05;;;;;;;;;;;1.60;84.20;;;;;;4160778;28;19921;-81
2024/01/28 06:55:05;;;;;;;;;;;1.60;84.20;;;;;;4161406;28;19940;-82
2024/01/28 06:57:06;;;;;;;;;;;1.60;84.20;;;;;;4173164;28;20015;-82
2024/01/28 06:59:06;;;;;;;;;;;1.60;84.20;;;;;;4159352;28;19929;-82
2024/01/28 07:01:09;;;;;;;;;;;1.60;84.40;;;;;;4160900;28;19920;-82
2024/01/28 07:03:10;;;;;;;;;;;1.60;84.30;;;;;;4161843;28;19995;-81
2024/01/28 07:05:15;;;;;;;;;;;1.60;84.30;;;;;;4161423;28;19974;-82
2024/01/28 07:07:15;;;;;;;;;;;1.60;84.30;;;;;;4156427;28;21236;-81
2024/01/28 07:09:17;;;;;;;;;;;1.60;84.30;;;;;;4138124;28;19928;-82
2024/01/28 07:11:19;;;;;;;;;;;1.60;84.40;;;;;;4155192;28;19928;-82
2024/01/28 07:13:21;;;;;;;;;;;1.60;85.10;;;;;;4155437;28;19952;-82
2024/01/28 07:15:21;;;;;;;;;;;1.60;84.40;;;;;;4155829;28;19921;-81
2024/01/28 07:17:22;;;;;;;;;;;1.50;84.30;;;;;;4155054;28;20128;-81
2024/01/28 07:19:23;;;;;;;;;;;1.50;84.40;;;;;;4138228;28;19925;-82
2024/01/28 07:21:25;;;;;;;;;;;1.50;84.30;;;;;;4156974;28;19921;-82
2024/01/28 07:23:46;;;;;;;;;;;1.50;84.30;;;;;;4154664;28;20354;-81
2024/01/28 07:26:07;;;;;;;;;;;1.50;84.30;;;;;;4160018;28;19940;-82
2024/01/28 07:28:27;;;;;;;;;;;1.50;84.20;;;;;;4161824;28;19921;-82
2024/01/28 07:30:48;;;;;;;;;;;1.50;84.20;;;;;;4162036;28;19921;-82
2024/01/28 07:33:09;;;;;;;;;;;1.50;84.30;;;;;;4162743;28;20338;-81
2024/01/28 07:35:29;;;;;;;;;;;1.50;84.30;;;;;;4161162;28;19979;-82
2024/01/28 07:37:50;;;;;;;;;;;1.50;84.30;;;;;;4160219;28;19927;-82
2024/01/28 07:40:10;;;;;;;;;;;1.50;85.00;;;;;;4161768;28;20465;-82
2024/01/28 07:42:31;;;;;;;;;;;1.50;84.30;;;;;;4172331;28;20530;-82
2024/01/28 07:44:52;;;;;;;;;;;1.50;84.30;;;;;;4165288;28;19939;-82
2024/01/28 07:47:12;;;;;;;;;;;1.50;84.30;;;;;;4156257;28;22112;-82
2024/01/28 07:49:33;;;;;;;;;;;1.40;84.30;;;;;;4160343;28;20384;-82
2024/01/28 07:51:33;;;;;;;;;;;1.40;84.30;;;;;;4158807;28;19963;-82
2024/01/28 07:53:34;;;;;;;;;;;1.40;84.30;;;;;;4156783;28;19928;-82
2024/01/28 07:55:34;;;;;;;;;;;1.40;84.40;;;;;;4171125;28;19924;-82
2024/01/28 07:57:35;;;;;;;;;;;1.50;84.40;;;;;;4164483;28;20328;-82
2024/01/28 07:59:36;;;;;;;;;;;1.50;84.40;;;;;;4166325;28;19925;-82
2024/01/28 08:01:36;;;;;;;;;;;1.40;84.40;;;;;;4161570;28;19917;-82
2024/01/28 08:03:38;;;;;;;;;;;1.50;84.50;;;;;;4158408;28;19975;-82
2024/01/28 08:05:38;;;;;;;;;;;1.50;84.50;;;;;;4161168;28;20003;-82
2024/01/28 08:07:40;;;;;;;;;;;1.50;84.50;;;;;;4163065;28;19943;-83
2024/01/28 08:09:41;;;;;;;;;;;1.50;84.50;;;;;;4162060;28;20337;-82
2024/01/28 08:11:42;;;;;;;;;;;1.50;84.60;;;;;;4143794;28;19984;-82
2024/01/28 08:13:43;;;;;;;;;;;1.50;84.60;;;;;;4142794;28;19989;-82
2024/01/28 08:15:44;;;;;;;;;;;1.50;84.60;;;;;;4154276;28;19925;-82
2024/01/28 08:17:49;;;;;;;;;;;1.50;84.60;;;;;;4144448;28;19941;-82
2024/01/28 08:20:09;;;;;;;;;;;1.60;84.60;;;;;;4163425;28;19967;-83
2024/01/28 08:22:11;;;;;;;;;;;1.50;84.60;;;;;;4154865;28;19948;-82
2024/01/28 08:24:32;;;;;;;;;;;1.50;84.60;;;;;;4164596;28;20339;-82
2024/01/28 08:26:49;;;;;;;;;;;1.60;84.70;;;;;;4160869;28;19933;-82
2024/01/28 08:29:11;;;;;;;;;;;1.60;84.80;;;;;;4165587;28;20388;-82
2024/01/28 08:31:31;;;;;;;;;;;1.70;84.80;;;;;;4162436;28;21172;-82
2024/01/28 08:33:52;;;;;;;;;;;1.60;84.80;;;;;;4162659;28;20506;-82
2024/01/28 08:36:13;;;;;;;;;;;1.60;84.80;;;;;;4164620;28;21138;-82
2024/01/28 08:38:13;;;;;;;;;;;1.70;84.90;;;;;;4159576;28;19921;-82
2024/01/28 08:40:14;;;;;;;;;;;1.70;84.90;;;;;;4161086;28;19967;-82
2024/01/28 08:42:16;;;;;;;;;;;1.80;85.00;;;;;;4162108;28;19994;-82
2024/01/28 08:44:18;;;;;;;;;;;1.70;84.90;;;;;;4159257;28;20350;-82
2024/01/28 08:46:22;;;;;;;;;;;1.80;85.00;;;;;;4156149;28;19956;-82
2024/01/28 08:48:25;;;;;;;;;;;1.80;85.00;;;;;;4158443;28;19947;-82
2024/01/28 08:50:26;;;;;;;;;;;1.80;85.00;;;;;;4154289;28;19921;-82
2024/01/28 08:52:27;;;;;;;;;;;1.90;85.00;;;;;;4159215;28;19982;-80
2024/01/28 08:54:36;;;;;;;;;;;1.90;85.10;;;;;;4139551;28;20015;-79
2024/01/28 08:56:57;;;;;;;;;;;1.90;85.00;;;;;;4159204;28;20119;-81
2024/01/28 08:58:58;;;;;;;;;;;2.00;85.10;;;;;;4154476;28;20015;-79
2024/01/28 09:01:18;;;;;;;;;;;2.00;85.30;;;;;;4151638;28;19974;-81
2024/01/28 09:03:34;;;;;;;;;;;2.00;85.20;;;;;;4154677;28;19928;-81
2024/01/28 09:05:55;;;;;;;;;;;2.10;85.20;;;;;;4158509;28;20111;-82
2024/01/28 09:08:15;;;;;;;;;;;2.10;85.30;;;;;;4153216;28;20510;-80
2024/01/28 09:10:36;;;;;;;;;;;2.20;85.30;;;;;;4154439;28;20004;-80
2024/01/28 09:12:36;;;;;;;;;;;2.20;85.30;;;;;;4154251;28;19974;-80
2024/01/28 09:14:57;;;;;;;;;;;2.20;85.20;;;;;;4156652;28;20313;-81
2024/01/28 09:17:18;;;;;;;;;;;2.30;85.40;;;;;;4158365;28;19932;-81
2024/01/28 09:19:38;;;;;;;;;;;2.30;85.30;;;;;;4153124;28;20338;-80
2024/01/28 09:21:59;;;;;;;;;;;2.30;85.30;;;;;;4158321;28;22212;-80
2024/01/28 09:24:19;;;;;;;;;;;2.40;85.50;;;;;;4158451;28;20440;-81
2024/01/28 09:26:40;;;;;;;;;;;2.40;85.40;;;;;;4159554;28;20436;-81
2024/01/28 09:29:01;;;;;;;;;;;2.50;85.50;;;;;;4158451;28;20447;-81
2024/01/28 09:31:21;;;;;;;;;;;2.50;85.50;;;;;;4156349;28;19921;-79
2024/01/28 09:33:43;;;;;;;;;;;2.60;85.50;;;;;;4153013;28;20599;-81
2024/01/28 09:36:03;;;;;;;;;;;2.60;85.50;;;;;;4162792;28;21491;-80
2024/01/28 09:38:24;;;;;;;;;;;2.70;85.60;;;;;;4163298;28;20474;-81
2024/01/28 09:40:24;;;;;;;;;;;2.70;85.70;;;;;;4159458;28;19961;-80
2024/01/28 09:42:25;;;;;;;;;;;2.80;85.70;;;;;;4161809;28;19927;-82
2024/01/28 09:44:26;;;;;;;;;;;2.80;85.70;;;;;;4140028;28;19921;-81
2024/01/28 09:46:27;;;;;;;;;;;2.90;85.80;;;;;;4156901;28;20441;-82
2024/01/28 09:48:28;;;;;;;;;;;2.90;85.90;;;;;;4144431;28;20701;-80
2024/01/28 09:50:29;;;;;;;;;;;3.00;86.00;;;;;;4158909;28;19921;-81
2024/01/28 09:52:31;;;;;;;;;;;3.10;86.10;;;;;;4158295;28;19924;-82
2024/01/28 09:54:32;;;;;;;;;;;3.10;86.00;;;;;;4157545;28;19925;-81
2024/01/28 09:56:33;;;;;;;;;;;3.20;86.00;;;;;;4144981;28;20035;-79
2024/01/28 09:58:36;;;;;;;;;;;3.20;86.00;;;;;;4158009;28;19948;-80
2024/01/28 10:00:37;;;;;;;;;;;3.30;86.10;;;;;;4156655;28;20007;-81
2024/01/28 10:02:39;;;;;;;;;;;3.50;86.20;;;;;;4158039;28;19928;-80
2024/01/28 10:04:40;;;;;;;;;;;3.40;86.10;;;;;;4155123;28;19928;-80
2024/01/28 10:06:40;;;;;;;;;;;3.40;86.10;;;;;;4153363;28;19912;-81
2024/01/28 10:08:41;;;;;;;;;;;3.50;86.10;;;;;;4137022;28;19984;-82
2024/01/28 10:10:42;;;;;;;;;;;3.60;86.20;;;;;;4155389;28;20460;-81
2024/01/28 10:13:03;;;;;;;;;;;3.60;86.20;;;;;;4156923;28;19921;-81
2024/01/28 10:15:27;;;;;;;;;;;3.70;86.20;;;;;;4150964;28;20430;-81
2024/01/28 10:17:28;;;;;;;;;;;3.80;86.40;;;;;;4153446;28;20337;-83
2024/01/28 10:19:48;;;;;;;;;;;3.90;86.50;;;;;;4155038;28;21852;-81
2024/01/28 10:21:49;;;;;;;;;;;3.90;86.40;;;;;;4161465;28;20042;-79
2024/01/28 10:24:14;;;;;;;;;;;4.00;86.40;;;;;;4162621;28;19921;-82
2024/01/28 10:26:35;;;;;;;;;;;4.10;86.40;;;;;;4159466;28;20330;-82
2024/01/28 10:28:39;;;;;;;;;;;4.10;86.40;;;;;;4157846;28;19931;-81
2024/01/28 10:30:59;;;;;;;;;;;4.20;86.50;;;;;;4156751;28;19928;-82
2024/01/28 10:33:20;;;;;;;;;;;4.30;86.50;;;;;;4156913;28;19928;-83
2024/01/28 10:35:40;;;;;;;;;;;4.40;86.60;;;;;;4158398;28;19983;-83
2024/01/28 10:38:03;;;;;;;;;;;4.40;86.50;;;;;;4156740;28;19925;-83
2024/01/28 10:40:28;;;;;;;;;;;4.50;86.50;;;;;;4159234;28;19944;-82
2024/01/28 10:42:49;;;;;;;;;;;4.60;86.50;;;;;;4168884;28;19929;-82
2024/01/28 10:45:11;;;;;;;;;;;4.60;86.40;;;;;;4174193;28;19984;-81
2024/01/28 10:47:33;;;;;;;;;;;4.70;86.30;;;;;;4174941;28;19917;-81
2024/01/28 10:49:59;;;;;;;;;;;4.80;86.30;;;;;;4174919;28;19909;-80
2024/01/28 10:52:21;;;;;;;;;;;4.80;86.20;;;;;;4174665;28;19917;-79
2024/01/28 10:54:42;;;;;;;;;;;4.90;86.20;;;;;;4161967;28;19927;-80
2024/01/28 10:57:04;;;;;;;;;;;4.90;86.10;;;;;;4173161;28;20974;-80
2024/01/28 10:59:25;;;;;;;;;;;5.00;86.10;;;;;;4159550;28;19931;-82
2024/01/28 11:01:46;;;;;;;;;;;5.00;86.00;;;;;;4162319;28;19921;-83
2024/01/28 11:04:06;;;;;;;;;;;5.10;86.00;;;;;;4165117;28;19959;-81
2024/01/28 11:06:29;;;;;;;;;;;5.10;85.90;;;;;;4166608;28;19925;-82
2024/01/28 11:08:49;;;;;;;;;;;5.20;85.90;;;;;;4162795;28;19927;-81
2024/01/28 11:11:10;;;;;;;;;;;5.30;86.00;;;;;;4163737;28;19929;-81
2024/01/28 11:13:31;;;;;;;;;;;5.20;85.80;;;;;;4164131;28;19920;-80
2024/01/28 11:15:53;;;;;;;;;;;5.30;85.80;;;;;;4161785;28;20019;-80
2024/01/28 11:18:15;;;;;;;;;;;5.40;85.80;;;;;;4151351;28;21049;-80
2024/01/28 11:20:36;;;;;;;;;;;5.40;85.70;;;;;;4159449;28;19924;-81
2024/01/28 11:22:52;;;;;;;;;;;5.40;85.60;;;;;;4162040;28;20863;-79
2024/01/28 11:24:53;;;;;;;;;;;5.50;85.70;;;;;;4162463;28;19928;-80
2024/01/28 11:26:58;;;;;;;;;;;5.50;85.60;;;;;;4168603;28;19925;-82
2024/01/28 11:28:58;;;;;;;;;;;5.50;85.60;;;;;;4146585;28;19928;-81
2024/01/28 11:30:59;;;;;;;;;;;5.60;85.50;;;;;;4157404;28;21756;-82
2024/01/28 11:33:16;;;;;;;;;;;5.50;85.40;;;;;;4163822;28;19921;-82
2024/01/28 11:35:16;;;;;;;;;;;5.60;85.40;;;;;;4158028;28;19921;-81
2024/01/28 11:37:18;;;;;;;;;;;5.70;85.30;;;;;;4134330;28;19933;-81
2024/01/28 11:39:41;;;;;;;;;;;5.70;85.30;;;;;;4158656;28;20338;-81
2024/01/28 11:41:42;;;;;;;;;;;5.80;85.40;;;;;;4162926;28;19921;-82
2024/01/28 11:44:07;;;;;;;;;;;5.80;85.20;;;;;;4161658;28;19921;-83
2024/01/28 11:46:29;;;;;;;;;;;5.80;85.20;;;;;;4160182;28;19928;-80
2024/01/28 11:48:50;;;;;;;;;;;5.90;85.20;;;;;;4152649;28;19924;-81
2024/01/28 11:51:10;;;;;;;;;;;5.90;85.20;;;;;;4153626;28;19921;-81
2024/01/28 11:53:32;;;;;;;;;;;6.00;85.20;;;;;;4152949;28;19921;-81
2024/01/28 11:55:53;;;;;;;;;;;6.00;85.10;;;;;;4153881;28;20828;-82
2024/01/28 11:58:16;;;;;;;;;;;6.20;85.20;;;;;;4154165;28;19959;-81
2024/01/28 12:00:36;;;;;;;;;;;6.10;85.00;;;;;;4153444;28;20443;-81
2024/01/28 12:02:37;;;;;;;;;;;6.20;85.00;;;;;;4152504;28;19920;-83
2024/01/28 12:04:38;;;;;;;;;;;6.20;84.90;;;;;;4151671;28;19928;-81
2024/01/28 12:06:39;;;;;;;;;;;6.20;84.80;;;;;;4155840;28;19917;-81
2024/01/28 12:08:43;;;;;;;;;;;6.30;84.80;;;;;;4160831;28;20079;-81
2024/01/28 12:10:54;;;;;;;;;;;6.30;84.70;;;;;;4150674;28;19927;-82
2024/01/28 12:12:55;;;;;;;;;;;6.30;84.60;;;;;;4156896;28;19925;-81
2024/01/28 12:14:59;;;;;;;;;;;6.30;84.50;;;;;;4148665;28;19921;-82
2024/01/28 12:17:00;;;;;;;;;;;6.30;84.40;;;;;;4144294;28;19921;-82
2024/01/28 12:19:00;;;;;;;;;;;6.40;84.40;;;;;;4148324;28;20334;-81
2024/01/28 12:21:01;;;;;;;;;;;6.40;84.30;;;;;;4149944;28;19921;-81
2024/01/28 12:23:02;;;;;;;;;;;6.40;84.60;;;;;;4147748;28;19975;-82
2024/01/28 12:25:24;;;;;;;;;;;6.40;84.00;;;;;;4150540;28;19921;-81
2024/01/28 12:27:44;;;;;;;;;;;6.50;84.00;;;;;;4148115;28;19921;-82
2024/01/28 12:29:46;;;;;;;;;;;6.50;83.90;;;;;;4153385;28;19922;-82
2024/01/28 12:32:07;;;;;;;;;;;6.50;83.70;;;;;;4152110;28;19927;-83
2024/01/28 12:34:28;;;;;;;;;;;6.50;83.60;;;;;;4149443;28;20435;-82
2024/01/28 12:36:48;;;;;;;;;;;6.50;83.50;;;;;;4154765;28;19931;-81
2024/01/28 12:39:09;;;;;;;;;;;6.50;83.40;;;;;;4151845;28;20206;-82
2024/01/28 12:41:29;;;;;;;;;;;6.50;83.30;;;;;;4146554;28;19931;-82
2024/01/28 12:43:40;;;;;;;;;;;6.50;83.20;;;;;;4148702;28;20090;-81
2024/01/28 12:46:00;;;;;;;;;;;6.50;83.10;;;;;;4150687;28;19928;-83
2024/01/28 12:48:21;;;;;;;;;;;6.50;83.00;;;;;;4151569;28;19913;-81